Time;durP1;ratioP1;P1;durP2;ratioP2;P2;SDS_P1;SDS_P2;PMS_P1;PMS_P2;Temp;Humidity;BMP_temperature;BMP_pressure;BME280_temperature;BME280_humidity;BME280_pressure;Samples;Min_cycle;Max_cycle;Signal;HPM_P1;HPM_P2
2022/05/03 00:00:09;;;;;;;11.18;5.60;;;;;;;11.14;89.93;150453.23;1750324;81;20885;-61
2022/05/03 00:02:50;;;;;;;11.00;5.22;;;;;;;11.09;91.94;150441.55;1750324;81;21083;-61
2022/05/03 00:05:34;;;;;;;5.58;4.28;;;;;;;11.03;93.80;150425.98;1749932;81;21007;-61
2022/05/03 00:08:30;;;;;;;10.00;4.72;;;;;;;11.01;95.53;150420.78;1749888;82;21942;-61
2022/05/03 00:11:32;;;;;;;8.55;4.17;;;;;;;11.03;98.78;150425.98;1749923;82;21075;-60
2022/05/03 00:14:23;;;;;;;6.42;3.85;;;;;;;11.03;98.78;150425.98;1748917;80;21079;-59
2022/05/03 00:16:50;;;;;;;5.15;3.77;;;;;;;11.02;99.68;150423.37;1750130;81;20933;-60
2022/05/03 00:19:17;;;;;;;5.65;4.35;;;;;;;11.01;100.00;150422.06;1750170;81;21035;-60
2022/05/03 00:21:45;;;;;;;9.03;4.75;;;;;;;10.98;100.00;150413.00;1750336;82;21852;-60
2022/05/03 00:24:12;;;;;;;5.97;4.42;;;;;;;10.92;100.00;150398.72;1747612;80;21181;-59
2022/05/03 00:26:41;;;;;;;6.20;4.42;;;;;;;10.87;100.00;150387.02;1733116;82;21406;-59
2022/05/03 00:29:08;;;;;;;8.18;4.45;;;;;;;10.85;100.00;150381.84;1732652;82;21075;-60
2022/05/03 00:31:35;;;;;;;7.28;4.08;;;;;;;10.83;100.00;150376.66;1733109;82;21066;-59
2022/05/03 00:34:03;;;;;;;7.25;4.35;;;;;;;10.80;100.00;150367.55;1732522;82;21225;-59
2022/05/03 00:36:31;;;;;;;7.95;4.53;;;;;;;10.78;100.00;150362.36;1733048;82;21121;-59
2022/05/03 00:38:58;;;;;;;7.92;4.58;;;;;;;10.73;100.00;150351.98;1732907;82;21040;-59
2022/05/03 00:41:42;;;;;;;6.95;4.90;;;;;;;10.68;100.00;150337.70;1732843;82;21090;-61
2022/05/03 00:45:01;;;;;;;7.10;5.05;;;;;;;10.66;100.00;150332.52;1732670;82;21070;-59
2022/05/03 00:47:31;;;;;;;10.53;7.05;;;;;;;10.64;100.00;150327.33;1731862;82;21754;-59
2022/05/03 00:50:11;;;;;;;12.23;7.10;;;;;;;10.58;100.00;150314.36;1732866;81;21007;-59
2022/05/03 00:52:56;;;;;;;9.50;5.97;;;;;;;10.55;100.00;150306.58;1733354;82;21032;-59
2022/05/03 00:55:40;;;;;;;8.93;5.12;;;;;;;10.51;100.00;150294.89;1732694;81;21061;-60
2022/05/03 00:58:46;;;;;;;9.93;5.85;;;;;;;10.52;100.00;150298.80;1732598;82;21114;-58
2022/05/03 01:01:32;;;;;;;;;;;;;;;10.58;100.00;150313.03;1735195;82;21289;-58
2022/05/03 01:04:20;;;;;;;13.83;6.97;;;;;;;10.62;100.00;150322.14;1732432;82;28542;-60
2022/05/03 01:07:24;;;;;;;13.60;8.33;;;;;;;10.54;100.00;150303.98;1732725;82;21019;-58
2022/05/03 01:10:09;;;;;;;9.08;6.62;;;;;;;10.46;100.00;150283.19;1732650;82;21474;-59
2022/05/03 01:12:55;;;;;;;11.12;5.28;;;;;;;10.37;100.00;150261.08;1731922;82;21544;-58
2022/05/03 01:15:25;;;;;;;7.85;4.87;;;;;;;10.40;100.00;150267.59;1732859;81;21934;-59
2022/05/03 01:18:23;;;;;;;7.00;4.95;;;;;;;10.47;100.00;150285.78;1732483;82;20984;-59
2022/05/03 01:21:20;;;;;;;7.87;5.97;;;;;;;10.52;100.00;150298.80;1732741;82;21031;-58
2022/05/03 01:24:39;;;;;;;9.28;6.55;;;;;;;10.56;100.00;150309.17;1732726;81;21046;-59
2022/05/03 01:27:30;;;;;;;11.60;8.08;;;;;;;10.57;100.00;150311.77;1732254;81;21071;-59
2022/05/03 01:29:59;;;;;;;13.18;8.90;;;;;;;10.56;100.00;150309.17;1731981;82;20986;-58
2022/05/03 01:32:26;;;;;;;11.70;7.95;;;;;;;10.52;100.00;150298.80;1732473;81;21102;-58
2022/05/03 01:34:53;;;;;;;13.38;8.85;;;;;;;10.48;100.00;150287.11;1711292;82;20952;-59
2022/05/03 01:37:55;;;;;;;12.03;9.08;;;;;;;10.43;100.00;150275.42;1732041;82;21066;-59
2022/05/03 01:40:54;;;;;;;15.58;9.45;;;;;;;10.37;100.00;150259.81;1732149;82;21560;-59
2022/05/03 01:43:35;;;;;;;12.28;8.70;;;;;;;10.29;100.00;150241.66;1731594;82;21216;-59
2022/05/03 01:46:16;;;;;;;14.10;9.20;;;;;;;10.23;100.00;150226.06;1731547;82;21091;-59
2022/05/03 01:52:35;;;;;;;13.40;9.30;;;;;;;10.10;100.00;150192.36;1732104;82;21040;-59
2022/05/03 01:55:08;;;;;;;13.78;9.63;;;;;;;9.94;100.00;150153.44;1731951;82;21102;-59
2022/05/03 01:57:52;;;;;;;15.48;9.78;;;;;;;9.84;100.00;150127.52;1732477;82;21895;-60
2022/05/03 02:00:20;;;;;;;14.05;8.85;;;;;;;9.78;100.00;150111.91;1731931;82;22068;-60
2022/05/03 02:03:14;;;;;;;16.60;9.78;;;;;;;9.72;100.00;150098.95;1711580;82;21082;-59
2022/05/03 02:06:02;;;;;;;13.83;9.68;;;;;;;9.67;100.00;150086.00;1732654;82;21441;-59
2022/05/03 02:09:06;;;;;;;13.68;9.70;;;;;;;9.59;100.00;150065.22;1732561;81;21058;-59
2022/05/03 02:12:00;;;;;;;14.47;8.75;;;;;;;9.52;100.00;150048.41;1732328;82;21931;-59
2022/05/03 02:14:50;;;;;;;13.03;8.03;;;;;;;9.55;100.00;150054.86;1732507;82;21050;-60
2022/05/03 02:17:50;;;;;;;10.68;7.55;;;;;;;9.63;100.00;150075.64;1732373;82;21062;-59
2022/05/03 02:20:42;;;;;;;13.00;8.13;;;;;;;9.73;100.00;150101.55;1732187;81;21577;-59
2022/05/03 02:23:39;;;;;;;13.15;8.53;;;;;;;9.82;100.00;150122.28;1732163;82;20983;-60
2022/05/03 02:26:28;;;;;;;13.15;9.20;;;;;;;9.88;100.00;150137.88;1742638;80;21192;-59
2022/05/03 02:29:14;;;;;;;14.18;8.65;;;;;;;9.86;100.00;150132.70;1749393;80;20936;-59
2022/05/03 02:32:04;;;;;;;12.60;8.50;;;;;;;9.83;100.00;150124.87;1749513;81;20996;-59
2022/05/03 02:34:49;;;;;;;11.50;9.05;;;;;;;9.80;100.00;150117.09;1731817;82;21066;-59
2022/05/03 02:37:25;;;;;;;11.90;8.88;;;;;;;9.77;100.00;150110.64;1749627;80;21047;-60
2022/05/03 02:40:03;;;;;;;12.68;9.48;;;;;;;9.72;100.00;150097.64;1749550;81;21074;-59
2022/05/03 02:42:31;;;;;;;13.72;9.85;;;;;;;9.66;100.00;150083.41;1749762;82;21107;-60
2022/05/03 02:45:00;;;;;;;16.52;9.83;;;;;;;9.59;100.00;150066.53;1727241;81;21059;-58
2022/05/03 02:48:01;;;;;;;13.48;9.05;;;;;;;9.54;100.00;150052.27;1749484;82;21039;-60
2022/05/03 02:50:53;;;;;;;13.08;9.23;;;;;;;9.49;100.00;150039.31;1749702;82;21122;-59
2022/05/03 02:53:37;;;;;;;13.25;8.93;;;;;;;9.48;100.00;150036.72;1750038;81;21955;-60
2022/05/03 02:56:45;;;;;;;16.73;10.08;;;;;;;9.50;100.00;150043.17;1749207;81;21051;-59
2022/05/03 03:02:43;;;;;;;12.63;8.88;;;;;;;9.57;100.00;150060.03;1750205;81;20983;-59
2022/05/03 03:05:12;;;;;;;14.10;8.03;;;;;;;9.62;100.00;150073.05;1750169;81;21042;-59
2022/05/03 03:08:00;;;;;;;10.40;6.25;;;;;;;9.69;100.00;150091.19;1749847;80;21470;-58
2022/05/03 03:10:48;;;;;;;10.45;5.70;;;;;;;9.82;100.00;150122.28;1730686;82;21060;-58
2022/05/03 03:14:00;;;;;;;12.65;7.75;;;;;;;9.97;100.00;150161.20;1749718;80;20991;-58
2022/05/03 03:16:33;;;;;;;16.48;12.18;;;;;;;10.13;100.00;150200.13;1749727;82;21074;-61
2022/05/03 03:19:09;;;;;;;11.50;8.88;;;;;;;10.16;100.00;150207.91;1750226;80;21050;-60
2022/05/03 03:21:37;;;;;;;12.43;8.98;;;;;;;10.10;100.00;150192.36;1748839;81;21575;-59
2022/05/03 03:24:05;;;;;;;12.75;8.90;;;;;;;10.06;100.00;150181.94;1749250;80;21857;-59
2022/05/03 03:26:32;;;;;;;15.68;10.18;;;;;;;10.02;100.00;150174.17;1749479;81;21035;-59
2022/05/03 03:29:00;;;;;;;10.65;6.97;;;;;;;10.03;100.00;150176.75;1749226;80;21027;-60
2022/05/03 03:31:27;;;;;;;9.63;5.30;;;;;;;10.10;100.00;150193.63;1749748;80;21578;-58
2022/05/03 03:33:54;;;;;;;8.63;5.42;;;;;;;10.21;100.00;150220.88;1749476;82;21277;-59
2022/05/03 03:36:23;;;;;;;8.23;6.03;;;;;;;10.35;100.00;150254.63;1749646;80;21094;-59
2022/05/03 03:38:51;;;;;;;14.75;8.53;;;;;;;10.44;100.00;150278.02;1749516;80;20948;-59
2022/05/03 03:41:19;;;;;;;11.45;8.10;;;;;;;10.51;100.00;150294.89;1749078;80;21019;-59
2022/05/03 03:43:46;;;;;;;10.35;7.35;;;;;;;10.50;100.00;150293.61;1749665;81;21334;-58
2022/05/03 03:46:13;;;;;;;12.68;7.00;;;;;;;10.44;100.00;150278.02;1749098;82;21166;-60
2022/05/03 03:48:40;;;;;;;9.70;7.03;;;;;;;10.44;100.00;150278.02;1749492;80;20996;-59
2022/05/03 03:51:08;;;;;;;7.22;5.78;;;;;;;10.50;100.00;150292.30;1726776;81;21035;-60
2022/05/03 03:53:36;;;;;;;9.78;6.15;;;;;;;10.54;100.00;150303.98;1749894;80;21110;-59
2022/05/03 03:56:04;;;;;;;9.70;7.22;;;;;;;10.64;100.00;150327.33;1749759;80;21173;-60
2022/05/03 03:58:31;;;;;;;10.80;7.50;;;;;;;10.74;100.00;150353.31;1749942;82;21254;-58
2022/05/03 04:00:59;;;;;;;9.13;6.90;;;;;;;10.79;100.00;150366.28;1749395;80;21063;-59
2022/05/03 04:03:26;;;;;;;8.00;5.53;;;;;;;10.81;100.00;150371.47;1749894;81;21145;-59
2022/05/03 04:05:53;;;;;;;5.62;4.30;;;;;;;10.86;100.00;150384.44;1749655;82;21415;-59
2022/05/03 04:08:20;;;;;;;8.13;4.35;;;;;;;10.95;100.00;150405.22;1749419;82;20964;-60
2022/05/03 04:10:49;;;;;;;6.22;4.28;;;;;;;11.08;100.00;150438.94;1749600;81;21230;-60
2022/05/03 04:13:17;;;;;;;9.63;4.37;;;;;;;11.22;100.00;150472.72;1749771;82;21074;-60
2022/05/03 04:15:48;;;;;;;6.25;4.45;;;;;;;11.34;100.00;150503.86;1749845;82;20992;-60
2022/05/03 04:18:15;;;;;;;5.50;4.53;;;;;;;11.45;100.00;150532.44;1749797;81;21050;-60
2022/05/03 04:20:43;;;;;;;9.83;5.67;;;;;;;11.56;100.00;150558.39;1750013;81;20885;-60
2022/05/03 04:23:10;;;;;;;8.23;6.45;;;;;;;11.63;100.00;150576.61;1749604;82;21289;-59
2022/05/03 04:25:39;;;;;;;15.50;7.50;;;;;;;11.72;100.00;150598.69;1726822;81;21638;-60
2022/05/03 04:28:07;;;;;;;13.50;7.45;;;;;;;11.85;100.00;150631.16;1732689;82;21476;-61
2022/05/03 04:30:34;;;;;;;13.35;6.95;;;;;;;11.96;100.00;150659.70;1732698;82;21576;-60
2022/05/03 04:33:01;;;;;;;10.85;7.50;;;;;;;12.10;99.39;150694.83;1732251;82;21496;-60
2022/05/03 04:35:29;;;;;;;12.55;7.90;;;;;;;12.20;97.93;150719.50;1732463;82;21576;-60
2022/05/03 04:37:56;;;;;;;10.30;7.17;;;;;;;12.27;97.00;150737.73;1732303;82;20940;-60
2022/05/03 04:40:24;;;;;;;11.85;6.45;;;;;;;12.40;96.58;150768.89;1732522;82;21091;-59
2022/05/03 04:42:51;;;;;;;12.47;6.55;;;;;;;12.56;96.55;150809.16;1732595;82;21039;-58
2022/05/03 04:45:18;;;;;;;13.03;6.55;;;;;;;12.78;96.19;150865.06;1732379;81;21241;-58
2022/05/03 04:47:45;;;;;;;8.18;5.83;;;;;;;13.04;96.01;150930.05;1732844;82;21892;-58
2022/05/03 04:50:13;;;;;;;6.35;4.85;;;;;;;13.36;95.48;151010.64;1732535;82;21075;-60
2022/05/03 04:52:41;;;;;;;6.28;4.62;;;;;;;13.66;94.34;151086.14;1732598;82;21402;-60
2022/05/03 04:55:09;;;;;;;6.95;4.90;;;;;;;13.90;93.36;151147.25;1732620;82;21611;-60
2022/05/03 04:57:36;;;;;;;6.22;3.92;;;;;;;14.13;92.26;151203.20;1732745;81;20979;-58
2022/05/03 05:00:05;;;;;;;5.50;3.90;;;;;;;14.32;91.30;151251.33;1732134;82;21449;-61
2022/05/03 05:02:32;;;;;;;5.45;3.70;;;;;;;14.51;90.25;151299.50;1732497;82;21601;-61
2022/05/03 05:04:59;;;;;;;4.90;2.87;;;;;;;14.70;89.35;151346.31;1732190;82;21877;-60
2022/05/03 05:07:26;;;;;;;3.75;3.12;;;;;;;14.86;88.08;151386.75;1732272;82;22237;-61
2022/05/03 05:12:39;;;;;;;6.05;2.98;;;;;;;15.09;85.42;151445.30;1732644;82;21125;-59
2022/05/03 05:15:08;;;;;;;3.45;2.75;;;;;;;15.20;83.21;151471.36;1731931;82;21071;-60
2022/05/03 05:17:35;;;;;;;6.25;2.02;;;;;;;15.27;81.96;151489.56;1732486;82;21579;-60
2022/05/03 05:20:02;;;;;;;3.15;1.50;;;;;;;15.33;80.38;151505.19;1731994;82;21770;-59
2022/05/03 05:22:29;;;;;;;2.20;1.57;;;;;;;15.41;78.36;151526.05;1732437;82;21074;-59
2022/05/03 05:24:56;;;;;;;2.30;1.65;;;;;;;15.50;77.15;151546.86;1732005;82;21298;-60
2022/05/03 05:27:23;;;;;;;2.85;1.60;;;;;;;15.58;75.93;151567.67;1744570;80;20988;-60
2022/05/03 05:29:51;;;;;;;4.20;1.55;;;;;;;15.63;74.30;151580.73;1749588;82;21052;-60
2022/05/03 05:32:18;;;;;;;3.20;1.60;;;;;;;15.68;72.70;151593.75;1748991;82;21063;-60
2022/05/03 05:34:46;;;;;;;1.90;1.50;;;;;;;15.72;70.91;151602.87;1749622;82;20984;-59
2022/05/03 05:37:13;;;;;;;2.52;1.52;;;;;;;15.73;69.05;151605.48;1749555;81;21209;-60
2022/05/03 05:39:40;;;;;;;3.85;1.55;;;;;;;15.75;68.58;151610.69;1750052;81;21378;-59
2022/05/03 05:42:07;;;;;;;3.83;1.60;;;;;;;15.79;68.17;151621.09;1749462;81;21803;-60
2022/05/03 05:44:35;;;;;;;5.53;1.70;;;;;;;15.81;68.21;151625.03;1750209;81;21047;-60
2022/05/03 05:47:04;;;;;;;2.50;1.32;;;;;;;15.86;68.55;151639.31;1749869;82;21102;-60
2022/05/03 05:49:32;;;;;;;2.95;1.47;;;;;;;15.89;67.94;151647.17;1749958;81;21453;-60
2022/05/03 05:54:45;;;;;;;3.10;1.82;;;;;;;15.90;67.53;151648.50;1749579;82;21098;-59
2022/05/03 05:57:12;;;;;;;4.17;1.67;;;;;;;15.92;68.19;151653.70;1749211;82;21056;-60
2022/05/03 05:59:39;;;;;;;5.10;1.37;;;;;;;15.96;68.49;151664.13;1750353;80;21008;-60
2022/05/03 06:02:07;;;;;;;2.37;1.60;;;;;;;16.04;67.96;151683.66;1749544;80;21238;-61
2022/05/03 06:04:35;;;;;;;2.50;1.50;;;;;;;16.12;67.80;151703.22;1750107;81;21086;-59
2022/05/03 06:07:02;;;;;;;1.95;1.30;;;;;;;16.17;67.30;151716.22;1749605;82;21071;-60
2022/05/03 06:09:29;;;;;;;4.50;1.70;;;;;;;16.20;66.58;151724.03;1749778;81;21060;-60
2022/05/03 06:11:57;;;;;;;2.05;1.40;;;;;;;16.24;66.71;151734.45;1747912;82;21026;-62
2022/05/03 06:14:24;;;;;;;3.50;1.75;;;;;;;16.26;66.41;151739.70;1749665;81;21185;-59
2022/05/03 06:16:53;;;;;;;3.02;1.62;;;;;;;16.27;66.86;151742.31;1742058;80;21007;-62
2022/05/03 06:19:20;;;;;;;2.77;1.57;;;;;;;16.30;67.01;151750.12;1735544;82;21055;-61
2022/05/03 06:21:47;;;;;;;4.40;1.65;;;;;;;16.30;67.15;151748.80;1745036;80;20904;-60
2022/05/03 06:24:15;;;;;;;5.12;1.52;;;;;;;16.28;67.43;151743.59;1745016;80;21117;-60
2022/05/03 06:26:42;;;;;;;4.20;1.70;;;;;;;16.29;67.78;151747.52;1745372;81;21115;-58
2022/05/03 06:29:09;;;;;;;1.87;1.40;;;;;;;16.42;68.39;151778.77;1744726;82;20943;-60
2022/05/03 06:31:37;;;;;;;2.37;1.40;;;;;;;16.56;68.14;151815.27;1745505;82;21018;-61
2022/05/03 06:34:07;;;;;;;2.77;1.40;;;;;;;16.71;67.79;151851.77;1745162;81;21082;-60
2022/05/03 06:36:37;;;;;;;2.00;1.70;;;;;;;16.89;66.85;151897.38;1745065;81;21105;-61
2022/05/03 06:39:05;;;;;;;2.65;1.45;;;;;;;17.04;65.44;151936.53;1745174;82;21219;-60
2022/05/03 06:41:33;;;;;;;2.83;1.60;;;;;;;17.15;63.61;151963.92;1744988;80;21082;-60
2022/05/03 06:44:00;;;;;;;2.30;1.40;;;;;;;17.26;61.47;151989.97;1744653;80;21082;-60
2022/05/03 06:46:27;;;;;;;2.72;1.40;;;;;;;17.41;59.35;152029.09;1745187;80;21078;-59
2022/05/03 06:48:55;;;;;;;3.87;1.52;;;;;;;17.60;56.85;152077.31;1745671;81;20949;-60
2022/05/03 06:51:22;;;;;;;3.83;1.40;;;;;;;17.79;54.66;152122.95;1744839;81;21227;-61
2022/05/03 06:53:49;;;;;;;3.58;1.30;;;;;;;17.98;54.16;152172.52;1744813;82;20950;-61
2022/05/03 06:56:17;;;;;;;2.00;1.50;;;;;;;18.18;53.83;152223.47;1756173;81;21048;-63
2022/05/03 06:58:45;;;;;;;1.57;1.30;;;;;;;18.33;53.06;152261.28;1752273;81;21372;-61
2022/05/03 07:01:14;;;;;;;4.92;1.40;;;;;;;18.46;52.10;152292.62;1747158;81;21049;-59
2022/05/03 07:03:41;;;;;;;4.17;1.40;;;;;;;18.55;50.81;152314.77;1720825;80;21070;-61
2022/05/03 07:06:09;;;;;;;2.52;1.42;;;;;;;18.60;50.39;152327.84;1743952;82;21066;-61
2022/05/03 07:08:36;;;;;;;5.40;1.60;;;;;;;18.58;50.27;152322.63;1746355;80;21186;-61
2022/05/03 07:11:04;;;;;;;4.28;1.40;;;;;;;18.58;49.70;152323.91;1745272;81;21061;-61
2022/05/03 07:13:31;;;;;;;3.40;1.72;;;;;;;18.57;50.16;152321.31;1748861;81;21096;-61
2022/05/03 07:15:59;;;;;;;2.80;1.30;;;;;;;18.53;50.34;152310.88;1760627;81;21839;-61
2022/05/03 07:23:59;;;;;;;4.75;1.40;;;;;;;18.75;48.91;152365.69;1744399;80;21509;-60
2022/05/03 07:26:26;;;;;;;2.58;1.60;;;;;;;18.80;48.19;152378.72;1743039;80;21461;-61
2022/05/03 07:28:53;;;;;;;4.10;1.22;;;;;;;18.89;48.50;152400.91;1759473;81;21804;-60
2022/05/03 07:31:21;;;;;;;4.83;1.40;;;;;;;18.97;47.96;152420.50;1741279;80;21514;-64
2022/05/03 07:33:48;;;;;;;2.15;1.40;;;;;;;18.97;47.07;152420.50;1747354;80;21408;-61
2022/05/03 07:36:17;;;;;;;2.20;1.40;;;;;;;18.89;46.93;152400.91;1762349;81;21077;-61
2022/05/03 07:38:46;;;;;;;2.05;1.40;;;;;;;18.79;46.28;152376.11;1755777;81;20891;-62
2022/05/03 07:41:14;;;;;;;4.25;1.42;;;;;;;18.68;47.21;152347.38;1759757;81;21153;-61
2022/05/03 07:43:43;;;;;;;3.12;1.20;;;;;;;18.69;48.22;152350.03;1765981;81;20982;-62
2022/05/03 07:46:10;;;;;;;4.28;1.70;;;;;;;18.79;47.65;152376.11;1765764;81;21080;-62
2022/05/03 07:48:38;;;;;;;2.02;1.20;;;;;;;18.87;46.99;152396.97;1766067;80;20949;-61
2022/05/03 07:51:05;;;;;;;3.47;1.42;;;;;;;18.95;47.10;152416.56;1762495;80;21092;-60
2022/05/03 07:53:32;;;;;;;1.92;1.60;;;;;;;19.07;47.40;152446.63;1750342;81;21184;-61
2022/05/03 07:56:00;;;;;;;2.40;1.27;;;;;;;19.17;46.77;152471.44;1762133;80;21012;-61
2022/05/03 07:58:28;;;;;;;1.70;1.20;;;;;;;19.23;47.45;152485.80;1752663;80;21045;-60
2022/05/03 08:00:55;;;;;;;2.50;1.50;;;;;;;19.26;47.36;152493.63;1735289;81;21008;-62
2022/05/03 08:03:22;;;;;;;4.00;1.50;;;;;;;19.34;47.50;152514.50;1730291;82;21205;-61
2022/05/03 08:05:50;;;;;;;2.65;1.50;;;;;;;19.38;47.23;152524.98;1748629;80;21417;-60
2022/05/03 08:10:47;;;;;;;3.77;1.32;;;;;;;19.40;47.98;152530.20;1831742;77;23054;-62
2022/05/03 08:13:14;;;;;;;3.10;1.77;;;;;;;19.33;47.56;152511.89;1795893;79;20953;-61
2022/05/03 08:15:42;;;;;;;5.33;1.65;;;;;;;19.25;47.98;152491.02;1795376;79;21234;-59
2022/05/03 08:18:09;;;;;;;4.87;1.52;;;;;;;19.18;48.50;152475.38;1804612;78;20951;-60
2022/05/03 08:20:38;;;;;;;4.37;1.47;;;;;;;19.20;49.33;152477.97;1812245;77;21002;-60
2022/05/03 08:23:05;;;;;;;1.30;1.20;;;;;;;19.24;49.66;152488.41;1812499;79;21338;-60
2022/05/03 08:25:32;;;;;;;5.90;1.90;;;;;;;19.29;48.87;152501.45;1812535;79;21006;-60
2022/05/03 08:28:00;;;;;;;4.50;1.52;;;;;;;19.27;48.74;152496.23;1813489;79;21177;-59
2022/05/03 08:30:27;;;;;;;2.72;1.70;;;;;;;19.23;48.36;152485.80;1810000;78;21031;-61
2022/05/03 08:32:54;;;;;;;2.77;1.35;;;;;;;19.14;48.25;152464.94;1792710;79;21018;-59
2022/05/03 08:35:21;;;;;;;2.85;1.75;;;;;;;19.06;48.96;152444.02;1812915;79;21110;-60
2022/05/03 08:43:24;;;;;;;2.58;1.40;;;;;;;18.88;48.79;152399.59;1808911;79;21810;-61
2022/05/03 08:45:51;;;;;;;1.67;1.20;;;;;;;18.83;49.28;152385.27;1800432;79;20985;-61
2022/05/03 08:48:22;;;;;;;2.05;1.40;;;;;;;18.75;49.23;152365.69;1786021;79;21011;-61
2022/05/03 08:50:49;;;;;;;3.50;1.40;;;;;;;18.65;49.98;152339.56;1804350;78;21475;-61
2022/05/03 08:53:16;;;;;;;2.47;1.52;;;;;;;18.55;49.50;152316.09;1813503;79;21935;-60
2022/05/03 08:55:44;;;;;;;2.67;1.40;;;;;;;18.47;49.46;152295.23;1748245;80;21009;-61
2022/05/03 08:58:17;;;;;;;4.28;1.80;;;;;;;18.43;49.80;152284.75;1784630;79;20949;-62
2022/05/03 09:00:44;;;;;;;1.85;1.35;;;;;;;18.38;49.80;152271.72;1781076;80;21053;-61
2022/05/03 09:03:12;;;;;;;3.30;1.77;;;;;;;18.33;50.04;152261.28;1789874;79;21059;-61
2022/05/03 09:05:39;;;;;;;2.85;1.40;;;;;;;18.30;50.14;152252.14;1784668;79;21814;-62
2022/05/03 09:08:09;;;;;;;2.40;1.52;;;;;;;18.28;50.10;152248.25;1812542;79;21047;-61
2022/05/03 09:10:38;;;;;;;2.33;1.40;;;;;;;18.30;50.30;152253.47;1738655;80;20922;-61
2022/05/03 09:13:22;;;;;;;5.00;1.40;;;;;;;18.24;49.57;152237.83;1808001;79;21232;-61
2022/05/03 09:15:55;;;;;;;1.57;1.40;;;;;;;18.12;49.33;152206.50;1813146;78;21036;-61
2022/05/03 09:18:28;;;;;;;3.27;1.60;;;;;;;18.02;48.87;152181.72;1810764;79;21176;-61
2022/05/03 09:23:48;;;;;;;2.92;1.50;;;;;;;17.89;51.00;152149.06;1780142;79;21396;-60
2022/05/03 09:26:24;;;;;;;2.52;1.37;;;;;;;17.86;50.72;152142.52;1779163;80;21125;-60
2022/05/03 09:28:53;;;;;;;1.77;1.30;;;;;;;17.89;51.24;152149.06;1780113;79;21009;-61
2022/05/03 09:31:47;;;;;;;6.00;1.50;;;;;;;17.92;50.08;152156.88;1777945;80;21224;-61
2022/05/03 09:34:25;;;;;;;3.72;1.70;;;;;;;17.87;49.77;152145.13;1777188;80;22160;-60
2022/05/03 09:37:00;;;;;;;4.45;1.30;;;;;;;17.83;50.24;152133.42;1777945;79;20934;-62
2022/05/03 09:39:29;;;;;;;;;;;;;;;17.81;50.31;152128.22;1781520;79;21505;-59
2022/05/03 09:42:15;;;;;;;4.05;1.72;;;;;;;17.73;49.71;152109.92;1784415;77;20524;-60
2022/05/03 09:44:54;;;;;;;1.92;1.40;;;;;;;17.64;49.48;152086.47;1748888;81;21490;-59
2022/05/03 09:47:33;;;;;;;5.15;1.50;;;;;;;17.56;49.09;152066.91;1748635;81;20972;-60
2022/05/03 09:50:00;;;;;;;3.05;1.57;;;;;;;17.45;49.40;152039.52;1748749;81;20914;-60
2022/05/03 09:52:36;;;;;;;2.92;1.27;;;;;;;17.36;49.89;152014.75;1774705;79;20967;-60
2022/05/03 09:55:06;;;;;;;2.02;1.42;;;;;;;17.33;50.70;152009.53;1808996;79;22204;-60
2022/05/03 09:57:35;;;;;;;2.77;1.50;;;;;;;17.27;51.54;151992.56;1780252;79;21068;-60
2022/05/03 10:00:05;;;;;;;2.15;1.20;;;;;;;17.15;51.61;151963.92;1781844;79;20938;-59
2022/05/03 10:02:34;;;;;;;1.70;1.40;;;;;;;17.02;51.86;151930.00;1780682;79;21044;-60
2022/05/03 10:05:02;;;;;;;4.22;1.40;;;;;;;16.93;52.56;151906.52;1801558;79;21437;-59
2022/05/03 10:07:29;;;;;;;2.95;1.60;;;;;;;16.88;53.09;151894.77;1778155;79;21652;-60
2022/05/03 10:09:56;;;;;;;5.12;1.55;;;;;;;16.81;53.44;151877.81;1788545;79;21883;-61
2022/05/03 10:12:23;;;;;;;3.98;1.30;;;;;;;16.85;52.41;151886.95;1802300;79;21071;-60
2022/05/03 10:14:51;;;;;;;2.95;1.50;;;;;;;16.89;51.30;151898.66;1777540;79;20961;-60
2022/05/03 10:20:40;;;;;;;1.98;1.40;;;;;;;17.00;50.64;151924.80;1762586;81;26863;-61
2022/05/03 10:23:32;;;;;;;1.92;1.27;;;;;;;17.11;50.57;151953.45;1762053;81;21398;-62
2022/05/03 10:26:05;;;;;;;4.47;1.50;;;;;;;17.29;49.03;151999.11;1762248;81;20922;-61
2022/05/03 10:29:07;;;;;;;1.67;1.30;;;;;;;17.50;48.07;152049.94;1784338;79;21129;-60
2022/05/03 10:32:02;;;;;;;6.40;1.50;;;;;;;17.69;47.33;152099.50;1793430;79;20945;-62
2022/05/03 10:34:56;;;;;;;3.10;1.55;;;;;;;17.86;45.64;152141.25;1802213;79;21571;-61
2022/05/03 10:37:36;;;;;;;3.37;1.72;;;;;;;17.97;44.21;152169.91;1801629;79;21132;-62
2022/05/03 10:40:15;;;;;;;2.75;1.30;;;;;;;18.07;43.87;152193.47;1787546;79;20948;-61
2022/05/03 10:42:47;;;;;;;1.85;1.45;;;;;;;18.03;44.01;152185.66;1804145;79;20960;-60
2022/05/03 10:45:14;;;;;;;5.03;1.35;;;;;;;17.97;44.46;152168.63;1751666;79;21013;-60
2022/05/03 10:47:52;;;;;;;6.05;1.60;;;;;;;17.96;44.51;152166.03;1803102;79;21006;-61
2022/05/03 10:50:33;;;;;;;2.52;1.50;;;;;;;17.95;44.74;152163.42;1796507;79;21133;-60
2022/05/03 10:53:09;;;;;;;4.28;1.50;;;;;;;17.88;44.53;152146.45;1762876;79;20938;-60
2022/05/03 10:55:40;;;;;;;3.80;1.67;;;;;;;17.83;44.29;152134.70;1773041;79;21061;-60
2022/05/03 10:58:21;;;;;;;6.25;1.50;;;;;;;17.76;43.88;152117.73;1795479;79;22158;-60
2022/05/03 11:01:09;;;;;;;2.15;1.22;;;;;;;17.65;43.95;152089.06;1779296;79;20986;-59
2022/05/03 11:03:40;;;;;;;4.53;1.50;;;;;;;17.51;44.42;152052.55;1771483;79;21227;-60
2022/05/03 11:06:30;;;;;;;2.50;1.40;;;;;;;17.35;44.92;152012.14;1791858;77;21048;-59
2022/05/03 11:11:43;;;;;;;1.92;1.40;;;;;;;17.11;43.70;151953.45;1804973;79;20985;-60
2022/05/03 11:14:19;;;;;;;3.85;1.30;;;;;;;16.97;44.68;151918.22;1805617;79;21035;-61
2022/05/03 11:17:08;;;;;;;3.52;1.65;;;;;;;16.86;45.74;151890.84;1796876;79;21716;-61
2022/05/03 11:19:52;;;;;;;4.60;1.20;;;;;;;16.77;46.20;151867.41;1812098;78;20980;-60
2022/05/03 11:22:32;;;;;;;3.20;1.50;;;;;;;16.69;46.96;151846.52;1797706;79;20998;-60
2022/05/03 11:25:07;;;;;;;1.87;1.50;;;;;;;16.69;46.92;151847.84;1798518;79;21445;-61
2022/05/03 11:27:35;;;;;;;2.35;1.20;;;;;;;16.74;47.21;151859.58;1764079;79;21052;-61
2022/05/03 11:30:07;;;;;;;4.78;1.67;;;;;;;16.80;47.00;151873.87;1809323;79;21272;-61
2022/05/03 11:32:43;;;;;;;2.25;1.40;;;;;;;16.81;45.63;151876.53;1812368;78;21430;-60
2022/05/03 11:35:16;;;;;;;4.75;1.77;;;;;;;16.84;45.93;151885.62;1803024;78;20968;-64
2022/05/03 11:37:48;;;;;;;3.45;1.32;;;;;;;16.87;45.64;151893.44;1792501;78;20992;-61
2022/05/03 11:40:15;;;;;;;2.80;1.40;;;;;;;16.88;45.02;151896.05;1786871;78;21106;-61
2022/05/03 11:42:44;;;;;;;2.87;1.42;;;;;;;16.89;44.61;151898.66;1812341;79;21880;-62
2022/05/03 11:45:13;;;;;;;2.77;1.40;;;;;;;16.85;44.02;151888.23;1812279;77;20972;-60
2022/05/03 11:47:44;;;;;;;2.90;1.30;;;;;;;16.84;43.94;151885.62;1781046;79;21092;-62
2022/05/03 11:56:05;;;;;;;4.83;1.60;;;;;;;16.96;44.50;151914.33;1800917;78;21400;-63
2022/05/03 11:58:33;;;;;;;3.25;1.72;;;;;;;17.00;44.85;151924.80;1809689;79;21074;-61
2022/05/03 12:01:00;;;;;;;8.25;1.70;;;;;;;17.13;44.91;151957.38;1807016;78;20985;-61
2022/05/03 12:03:28;;;;;;;2.45;1.40;;;;;;;17.21;44.58;151978.22;1804025;79;21056;-61
2022/05/03 12:06:03;;;;;;;3.25;1.60;;;;;;;17.29;43.93;151999.11;1802337;78;21599;-61
2022/05/03 12:08:31;;;;;;;4.83;1.75;;;;;;;17.40;43.42;152025.16;1718552;82;21501;-61
2022/05/03 12:10:58;;;;;;;6.92;2.00;;;;;;;17.51;42.84;152052.55;1787728;78;21411;-62
2022/05/03 12:13:29;;;;;;;1.90;1.50;;;;;;;17.61;42.68;152079.94;1789476;79;21021;-61
2022/05/03 12:16:03;;;;;;;4.15;1.45;;;;;;;17.67;42.21;152094.28;1800754;79;21058;-59
2022/05/03 12:18:41;;;;;;;2.98;1.32;;;;;;;17.72;42.38;152107.31;1780405;79;20976;-61
2022/05/03 12:21:12;;;;;;;2.25;1.50;;;;;;;17.84;41.67;152137.31;1777232;79;21891;-60
2022/05/03 12:23:47;;;;;;;2.12;1.40;;;;;;;17.89;40.88;152150.34;1791490;79;21114;-61
2022/05/03 12:26:27;;;;;;;6.80;1.70;;;;;;;17.85;39.41;152139.91;1707760;83;21038;-61
2022/05/03 12:28:56;;;;;;;1.67;1.30;;;;;;;17.80;39.80;152126.89;1745173;80;21010;-61
2022/05/03 12:31:35;;;;;;;2.72;1.37;;;;;;;17.82;38.56;152130.81;1731803;81;21029;-61